Time;durP1;ratioP1;P1;durP2;ratioP2;P2;SDS_P1;SDS_P2;PMS_P1;PMS_P2;Temp;Humidity;BMP_temperature;BMP_pressure;BME280_temperature;BME280_humidity;BME280_pressure;Samples;Min_cycle;Max_cycle;Signal;HPM_P1;HPM_P2
2020/12/19 00:01:12;;;;;;;1.20;0.80;;;23.80;37.60;;;;;;4997870;28;20034;-50
2020/12/19 00:03:37;;;;;;;1.10;0.82;;;23.80;37.60;;;;;;5015814;28;20050;-48
2020/12/19 00:06:07;;;;;;;1.23;0.75;;;23.80;37.60;;;;;;5027057;28;20486;-47
2020/12/19 00:08:33;;;;;;;1.15;0.70;;;23.80;37.70;;;;;;5034423;28;20034;-51
2020/12/19 00:10:58;;;;;;;0.93;0.65;;;23.80;37.70;;;;;;5034472;28;20091;-47
2020/12/19 00:13:24;;;;;;;1.30;0.68;;;23.70;37.70;;;;;;5033364;28;20113;-50
2020/12/19 00:15:50;;;;;;;1.65;0.73;;;23.70;37.70;;;;;;5033436;28;20064;-46
2020/12/19 00:18:16;;;;;;;2.15;0.70;;;23.70;37.70;;;;;;5033159;28;20489;-48
2020/12/19 00:20:41;;;;;;;0.93;0.60;;;23.70;37.70;;;;;;5032541;28;20341;-51
2020/12/19 00:23:07;;;;;;;0.70;0.70;;;23.70;37.70;;;;;;5030627;28;20060;-48
2020/12/19 00:25:33;;;;;;;1.05;0.70;;;23.60;37.70;;;;;;5035000;28;20425;-47
2020/12/19 00:27:59;;;;;;;1.35;0.80;;;23.60;37.70;;;;;;5034794;28;20455;-51
2020/12/19 00:30:24;;;;;;;0.95;0.70;;;23.60;37.70;;;;;;5034672;28;20040;-47
2020/12/19 00:32:50;;;;;;;1.15;0.90;;;23.60;37.70;;;;;;5034687;28;20056;-52
2020/12/19 00:35:16;;;;;;;1.08;0.80;;;23.60;37.80;;;;;;5031177;28;20038;-49
2020/12/19 00:37:43;;;;;;;1.25;0.90;;;23.60;37.80;;;;;;5034328;28;20425;-49
2020/12/19 00:40:10;;;;;;;1.10;0.85;;;23.50;37.80;;;;;;5034450;28;20337;-50
2020/12/19 00:42:39;;;;;;;1.33;0.95;;;23.50;37.80;;;;;;5009541;28;20029;-47
2020/12/19 00:45:07;;;;;;;1.10;0.90;;;23.50;37.80;;;;;;5030786;28;20123;-45
2020/12/19 00:47:36;;;;;;;0.88;0.80;;;23.50;37.90;;;;;;5030645;28;20044;-46
2020/12/19 00:50:04;;;;;;;1.38;0.90;;;23.40;37.80;;;;;;5032213;28;20041;-53
2020/12/19 00:52:30;;;;;;;1.30;0.68;;;23.50;37.90;;;;;;5034141;28;20064;-51
2020/12/19 00:54:56;;;;;;;0.98;0.80;;;23.50;37.90;;;;;;5034395;28;20060;-47
2020/12/19 00:57:21;;;;;;;1.20;0.80;;;23.50;37.90;;;;;;5034400;28;20088;-47
2020/12/19 00:59:47;;;;;;;1.25;0.85;;;23.40;37.90;;;;;;5033928;28;20021;-46
2020/12/19 01:02:13;;;;;;;1.45;0.80;;;23.40;37.90;;;;;;5016751;28;20029;-50
2020/12/19 01:04:39;;;;;;;0.95;0.85;;;23.40;37.90;;;;;;5031960;28;20029;-48
2020/12/19 01:07:09;;;;;;;2.40;1.00;;;23.40;37.90;;;;;;5029690;28;20417;-49
2020/12/19 01:09:35;;;;;;;0.77;0.75;;;23.40;37.90;;;;;;5015800;28;20397;-48
2020/12/19 01:12:00;;;;;;;1.45;0.90;;;23.40;37.90;;;;;;5033760;28;20124;-48
2020/12/19 01:14:26;;;;;;;0.90;0.75;;;23.40;37.90;;;;;;5032734;28;20038;-45
2020/12/19 01:16:52;;;;;;;1.23;0.70;;;23.30;37.90;;;;;;5033850;28;20013;-47
2020/12/19 01:19:18;;;;;;;1.02;0.80;;;23.30;37.90;;;;;;5032207;28;20044;-47
2020/12/19 01:21:43;;;;;;;1.40;0.85;;;23.30;37.90;;;;;;5033109;28;20029;-48
2020/12/19 01:24:09;;;;;;;0.88;0.80;;;23.30;38.00;;;;;;5030762;28;20022;-48
2020/12/19 01:26:35;;;;;;;0.77;0.63;;;23.30;38.00;;;;;;5031806;28;20068;-48
2020/12/19 01:29:00;;;;;;;1.45;0.70;;;23.30;38.10;;;;;;5033691;28;20041;-48
2020/12/19 01:31:26;;;;;;;0.85;0.60;;;23.20;38.00;;;;;;5031608;28;20037;-50
2020/12/19 01:33:52;;;;;;;0.60;0.50;;;23.20;38.10;;;;;;5033612;28;20049;-50
2020/12/19 01:36:21;;;;;;;1.13;0.80;;;23.20;38.10;;;;;;5030384;28;20030;-49
2020/12/19 01:38:47;;;;;;;1.25;0.73;;;23.20;38.10;;;;;;4990308;28;20130;-51
2020/12/19 01:41:14;;;;;;;0.88;0.77;;;23.20;38.10;;;;;;5030955;28;20033;-49
2020/12/19 01:43:53;;;;;;;1.08;0.63;;;23.20;38.00;;;;;;5033366;28;20094;-50
2020/12/19 01:46:56;;;;;;;1.15;0.70;;;23.20;38.10;;;;;;5031458;28;20033;-49
2020/12/19 01:49:24;;;;;;;1.10;0.70;;;23.20;38.10;;;;;;5032498;28;20091;-48
2020/12/19 01:51:53;;;;;;;1.13;0.80;;;23.10;38.10;;;;;;5014254;28;20033;-47
2020/12/19 01:54:21;;;;;;;0.80;0.68;;;23.10;38.10;;;;;;5032814;28;20037;-48
2020/12/19 01:56:49;;;;;;;1.20;0.75;;;23.10;38.10;;;;;;5032751;28;20456;-51
2020/12/19 01:59:16;;;;;;;1.23;0.85;;;23.10;38.20;;;;;;5032933;28;20440;-48
2020/12/19 02:01:53;;;;;;;2.70;0.75;;;23.10;38.20;;;;;;5027159;28;20083;-52
2020/12/19 02:04:21;;;;;;;1.20;0.90;;;23.10;38.20;;;;;;5031475;28;20044;-47
2020/12/19 02:06:51;;;;;;;1.33;0.70;;;23.10;38.20;;;;;;5010610;28;20065;-48
2020/12/19 02:09:19;;;;;;;0.52;0.50;;;23.10;38.20;;;;;;5013128;28;20091;-47
2020/12/19 02:11:46;;;;;;;0.68;0.60;;;23.00;38.20;;;;;;5012516;28;20029;-47
2020/12/19 02:14:13;;;;;;;0.80;0.70;;;23.10;38.30;;;;;;5012804;28;20042;-50
2020/12/19 02:16:39;;;;;;;0.90;0.80;;;23.00;38.20;;;;;;5012148;28;20091;-46
2020/12/19 02:19:12;;;;;;;1.60;0.60;;;23.00;38.30;;;;;;5010404;28;20042;-49
2020/12/19 02:21:40;;;;;;;0.70;0.68;;;23.00;38.30;;;;;;5012037;28;20049;-50
2020/12/19 02:24:06;;;;;;;1.10;0.65;;;23.00;38.30;;;;;;5011019;28;20345;-47
2020/12/19 02:26:32;;;;;;;1.52;1.17;;;23.00;38.30;;;;;;5009665;28;20034;-50
2020/12/19 02:28:57;;;;;;;0.80;0.77;;;23.00;38.30;;;;;;5011878;28;20026;-47
2020/12/19 02:31:23;;;;;;;1.00;0.70;;;23.00;38.40;;;;;;5011629;28;20107;-48
2020/12/19 02:33:49;;;;;;;1.48;0.80;;;23.00;38.40;;;;;;5012542;28;20026;-47
2020/12/19 02:36:15;;;;;;;1.05;0.85;;;23.00;38.40;;;;;;4990756;28;20100;-51
2020/12/19 02:38:41;;;;;;;0.90;0.70;;;23.00;38.40;;;;;;4995639;28;20479;-48
2020/12/19 02:41:06;;;;;;;0.70;0.55;;;22.90;38.40;;;;;;5011600;28;20105;-49
2020/12/19 02:43:32;;;;;;;0.98;0.70;;;22.90;38.40;;;;;;5010700;28;20033;-47
2020/12/19 02:45:59;;;;;;;0.98;0.60;;;22.90;38.40;;;;;;5010592;28;20022;-49
2020/12/19 02:48:31;;;;;;;1.05;0.85;;;22.90;38.50;;;;;;5007814;28;20026;-46
2020/12/19 02:50:57;;;;;;;1.10;0.88;;;22.90;38.40;;;;;;5009510;28;20037;-47
2020/12/19 02:53:23;;;;;;;0.98;0.80;;;22.90;38.50;;;;;;5012634;28;20030;-46
2020/12/19 02:55:48;;;;;;;0.90;0.68;;;22.90;38.50;;;;;;5009235;28;20042;-48
2020/12/19 03:01:27;;;;;;;1.02;0.70;;;22.90;38.50;;;;;;5006459;28;20030;-50
2020/12/19 03:03:53;;;;;;;0.68;0.60;;;22.90;39.20;;;;;;5012650;28;20361;-48
2020/12/19 03:06:18;;;;;;;0.82;0.68;;;22.80;38.50;;;;;;5020454;28;20041;-49
2020/12/19 03:08:44;;;;;;;0.82;0.63;;;22.80;38.50;;;;;;5031551;28;20025;-48
2020/12/19 03:11:10;;;;;;;0.73;0.70;;;22.80;38.60;;;;;;5030455;28;20068;-48
2020/12/19 03:13:36;;;;;;;0.65;0.60;;;22.80;38.60;;;;;;5032644;28;20083;-48
2020/12/19 03:16:01;;;;;;;0.63;0.52;;;22.80;38.50;;;;;;5030852;28;20099;-49
2020/12/19 03:18:27;;;;;;;0.80;0.70;;;22.80;38.50;;;;;;5015184;28;20040;-46
2020/12/19 03:20:53;;;;;;;0.43;0.40;;;22.80;38.60;;;;;;5031752;28;20508;-49
2020/12/19 03:23:18;;;;;;;0.40;0.40;;;22.70;38.50;;;;;;5031993;28;20018;-47
2020/12/19 03:25:44;;;;;;;0.95;0.70;;;22.70;38.50;;;;;;5031091;28;20052;-49
2020/12/19 03:28:10;;;;;;;1.00;0.65;;;22.70;38.60;;;;;;5029563;28;20030;-51
2020/12/19 03:30:36;;;;;;;0.65;0.60;;;22.70;38.60;;;;;;5030112;28;20104;-48
2020/12/19 03:33:02;;;;;;;0.68;0.65;;;22.70;38.60;;;;;;5035259;28;20021;-50
2020/12/19 03:35:28;;;;;;;1.40;0.80;;;22.70;38.70;;;;;;5035397;28;20045;-46
2020/12/19 03:37:54;;;;;;;0.70;0.70;;;22.70;38.60;;;;;;5035045;28;20433;-50
2020/12/19 03:40:20;;;;;;;0.70;0.70;;;22.70;38.60;;;;;;5034721;28;20112;-52
2020/12/19 03:42:46;;;;;;;1.67;1.02;;;22.70;38.70;;;;;;5032692;28;20035;-49
2020/12/19 03:45:11;;;;;;;1.00;0.77;;;22.70;38.60;;;;;;5032490;28;20108;-48
2020/12/19 03:47:37;;;;;;;0.70;0.70;;;22.70;38.60;;;;;;5035565;28;20029;-49
2020/12/19 03:50:05;;;;;;;1.00;0.90;;;22.60;38.60;;;;;;5035715;28;20029;-53
2020/12/19 03:52:30;;;;;;;0.82;0.73;;;22.70;38.70;;;;;;5032183;28;20037;-51
2020/12/19 03:54:56;;;;;;;1.92;0.85;;;22.60;38.60;;;;;;5032794;28;20045;-49
2020/12/19 03:57:22;;;;;;;0.77;0.60;;;22.60;38.60;;;;;;5034596;28;20071;-50
2020/12/19 03:59:48;;;;;;;1.33;0.73;;;22.60;38.60;;;;;;5033815;28;20309;-49
2020/12/19 04:02:13;;;;;;;1.10;1.00;;;22.60;38.70;;;;;;5033490;28;20037;-45
2020/12/19 04:04:39;;;;;;;1.05;0.73;;;22.60;38.70;;;;;;5035552;28;20041;-49
2020/12/19 04:07:05;;;;;;;1.63;0.80;;;22.60;38.70;;;;;;5035214;28;20075;-46
2020/12/19 04:09:31;;;;;;;0.68;0.50;;;22.60;38.70;;;;;;5033983;28;20110;-51
2020/12/19 04:11:56;;;;;;;0.90;0.80;;;22.60;38.80;;;;;;5036946;28;20029;-49
2020/12/19 04:14:37;;;;;;;0.88;0.60;;;22.50;38.70;;;;;;5035294;28;20107;-49
2020/12/19 04:17:12;;;;;;;1.02;0.80;;;22.60;38.80;;;;;;5032743;28;20333;-49
2020/12/19 04:19:39;;;;;;;1.95;0.70;;;22.60;38.80;;;;;;5034215;28;20350;-54
2020/12/19 04:22:05;;;;;;;0.70;0.50;;;22.50;38.70;;;;;;5033236;28;20087;-52
2020/12/19 04:24:32;;;;;;;1.00;0.77;;;22.50;38.70;;;;;;5034793;28;20456;-46
2020/12/19 04:26:58;;;;;;;0.52;0.50;;;22.50;38.70;;;;;;5032418;28;20154;-48
2020/12/19 04:29:26;;;;;;;1.25;0.82;;;22.50;38.80;;;;;;5034886;28;20025;-47
2020/12/19 04:31:52;;;;;;;1.35;0.70;;;22.50;38.80;;;;;;5026829;28;20141;-48
2020/12/19 04:34:18;;;;;;;1.20;0.93;;;22.50;38.80;;;;;;5015333;28;20033;-48
2020/12/19 04:36:43;;;;;;;0.95;0.70;;;22.50;39.40;;;;;;5031256;28;20079;-47
2020/12/19 04:39:09;;;;;;;3.15;0.93;;;22.50;38.80;;;;;;5017026;28;20029;-47
2020/12/19 04:41:35;;;;;;;1.50;0.65;;;22.50;38.80;;;;;;5015251;28;20033;-49
2020/12/19 04:44:02;;;;;;;0.90;0.80;;;22.50;38.90;;;;;;5034295;28;20035;-49
2020/12/19 04:46:31;;;;;;;1.40;0.80;;;22.50;38.90;;;;;;5016127;28;20021;-48
2020/12/19 04:49:01;;;;;;;0.70;0.70;;;22.50;38.90;;;;;;5034547;28;20404;-49
2020/12/19 04:51:27;;;;;;;0.70;0.52;;;22.50;38.80;;;;;;5031138;28;20033;-44
2020/12/19 04:53:54;;;;;;;2.53;0.80;;;22.40;38.80;;;;;;5033560;28;20045;-51
2020/12/19 04:56:23;;;;;;;0.57;0.50;;;22.40;38.80;;;;;;5016703;28;20041;-49
2020/12/19 04:58:54;;;;;;;0.80;0.70;;;22.40;38.80;;;;;;5033944;28;20033;-50
2020/12/19 05:01:20;;;;;;;1.00;0.70;;;22.40;38.80;;;;;;5034374;28;20029;-47
2020/12/19 05:03:49;;;;;;;1.05;0.60;;;22.40;38.80;;;;;;5033454;28;20494;-48
2020/12/19 05:06:21;;;;;;;1.35;0.75;;;22.40;38.80;;;;;;5015397;28;20043;-48
2020/12/19 05:08:48;;;;;;;0.63;0.50;;;22.40;38.90;;;;;;5035227;28;20030;-49
2020/12/19 05:11:14;;;;;;;0.80;0.75;;;22.40;38.90;;;;;;5033708;28;20132;-45
2020/12/19 05:13:42;;;;;;;1.13;0.70;;;22.40;38.90;;;;;;5031868;28;20034;-52
2020/12/19 05:16:09;;;;;;;1.15;0.60;;;22.40;38.90;;;;;;5032642;28;20491;-51
2020/12/19 05:18:37;;;;;;;0.70;0.68;;;22.40;38.90;;;;;;5015819;28;20365;-49
2020/12/19 05:21:04;;;;;;;0.98;0.60;;;22.30;38.80;;;;;;5033808;28;20037;-55
2020/12/19 05:23:35;;;;;;;0.63;0.60;;;22.40;38.90;;;;;;5027537;28;20041;-50
2020/12/19 05:26:04;;;;;;;0.98;0.55;;;22.40;38.90;;;;;;5033591;28;20087;-52
2020/12/19 05:28:33;;;;;;;1.58;1.00;;;22.30;38.90;;;;;;5031391;28;20021;-48
2020/12/19 05:31:00;;;;;;;0.60;0.60;;;22.30;38.90;;;;;;5032179;28;20045;-50
2020/12/19 05:33:34;;;;;;;0.77;0.50;;;22.30;38.90;;;;;;5033628;28;20330;-47
2020/12/19 05:36:01;;;;;;;0.65;0.65;;;22.30;38.90;;;;;;5029550;28;20049;-46
2020/12/19 05:38:29;;;;;;;1.23;0.70;;;22.30;38.90;;;;;;5028871;28;20034;-48
2020/12/19 05:40:55;;;;;;;0.73;0.70;;;22.30;38.90;;;;;;5033610;28;20076;-50
2020/12/19 05:43:21;;;;;;;0.63;0.57;;;22.30;39.00;;;;;;5032686;28;20033;-45
2020/12/19 05:45:47;;;;;;;1.52;0.82;;;22.30;38.90;;;;;;5033364;28;20033;-46
2020/12/19 05:48:12;;;;;;;1.05;0.60;;;22.30;39.00;;;;;;5030246;28;20025;-45
2020/12/19 05:50:40;;;;;;;2.80;0.65;;;22.30;39.00;;;;;;5033096;28;20044;-45
2020/12/19 05:53:08;;;;;;;2.72;0.70;;;22.30;39.00;;;;;;5027611;28;20124;-46
2020/12/19 05:55:34;;;;;;;1.17;0.90;;;22.30;39.00;;;;;;5030367;28;20483;-47
2020/12/19 05:58:00;;;;;;;0.70;0.50;;;22.20;38.90;;;;;;5033344;28;20126;-48
2020/12/19 06:00:30;;;;;;;1.00;0.80;;;22.30;39.00;;;;;;5032277;28;20025;-46
2020/12/19 06:02:57;;;;;;;0.73;0.52;;;22.20;38.90;;;;;;5029728;28;20033;-46
2020/12/19 06:05:23;;;;;;;0.90;0.70;;;22.20;38.90;;;;;;5033641;28;20030;-46
2020/12/19 06:07:50;;;;;;;0.63;0.63;;;22.20;38.90;;;;;;5013039;28;20100;-47
2020/12/19 06:10:18;;;;;;;1.00;0.90;;;22.20;39.00;;;;;;5013532;28;20021;-47
2020/12/19 06:12:58;;;;;;;0.80;0.60;;;22.20;39.00;;;;;;5012544;28;20461;-48
2020/12/19 06:16:03;;;;;;;0.50;0.47;;;22.20;39.00;;;;;;5013331;28;20091;-49
2020/12/19 06:18:50;;;;;;;1.48;1.08;;;22.20;39.00;;;;;;4995454;28;20030;-51
2020/12/19 06:21:16;;;;;;;0.75;0.60;;;22.20;38.90;;;;;;5013134;28;20400;-51
2020/12/19 06:23:42;;;;;;;0.68;0.68;;;22.20;38.90;;;;;;5012776;28;20048;-53
2020/12/19 06:26:09;;;;;;;0.88;0.70;;;22.10;38.90;;;;;;5012430;28;20457;-53
2020/12/19 06:28:40;;;;;;;1.67;0.77;;;22.10;38.90;;;;;;5013106;28;20037;-50
2020/12/19 06:31:08;;;;;;;0.93;0.70;;;22.10;38.90;;;;;;5013117;28;20072;-48
2020/12/19 06:33:35;;;;;;;0.93;0.70;;;22.10;39.00;;;;;;5014379;28;20033;-52
2020/12/19 06:36:17;;;;;;;0.95;0.52;;;22.10;39.00;;;;;;5010421;28;20382;-48
2020/12/19 06:39:02;;;;;;;1.20;0.73;;;22.10;38.90;;;;;;5012926;28;20022;-51
2020/12/19 06:41:52;;;;;;;0.93;0.60;;;22.10;39.00;;;;;;5010705;28;20033;-54
2020/12/19 06:44:24;;;;;;;0.77;0.68;;;22.10;39.00;;;;;;5012927;28;20033;-50
2020/12/19 06:46:51;;;;;;;0.88;0.70;;;22.10;39.00;;;;;;5011662;28;20122;-47
2020/12/19 06:49:23;;;;;;;1.33;0.80;;;22.10;39.00;;;;;;5002761;28;20457;-52
2020/12/19 06:52:02;;;;;;;1.30;0.60;;;22.10;38.90;;;;;;5012646;28;20104;-48
2020/12/19 06:54:35;;;;;;;0.73;0.60;;;22.10;38.90;;;;;;5011765;28;20045;-51
2020/12/19 06:57:02;;;;;;;0.80;0.70;;;22.10;39.00;;;;;;5012130;28;20476;-49
2020/12/19 06:59:29;;;;;;;0.90;0.60;;;22.10;39.00;;;;;;5012975;28;20032;-49
2020/12/19 07:02:25;;;;;;;0.70;0.70;;;22.10;39.00;;;;;;5013201;28;20133;-51
2020/12/19 07:04:51;;;;;;;0.60;0.60;;;22.10;39.00;;;;;;5010642;28;20096;-50
2020/12/19 07:07:27;;;;;;;1.05;0.52;;;22.00;38.90;;;;;;5031766;28;20052;-48
2020/12/19 07:09:59;;;;;;;0.70;0.68;;;22.00;38.90;;;;;;5032737;28;20108;-52
2020/12/19 07:12:28;;;;;;;0.80;0.70;;;22.00;38.90;;;;;;5035232;28;20108;-49
2020/12/19 07:14:54;;;;;;;0.82;0.70;;;22.00;39.00;;;;;;5034798;28;20033;-49
2020/12/19 07:17:20;;;;;;;1.23;0.70;;;22.00;39.00;;;;;;5033091;28;20029;-49
2020/12/19 07:19:46;;;;;;;1.23;0.80;;;22.00;38.90;;;;;;5033231;28;20043;-49
2020/12/19 07:22:12;;;;;;;0.80;0.60;;;22.00;38.90;;;;;;5035805;28;20120;-53
2020/12/19 07:24:39;;;;;;;1.02;0.65;;;22.00;39.00;;;;;;5036236;28;20025;-49
2020/12/19 07:27:05;;;;;;;1.05;0.60;;;22.00;39.00;;;;;;5035429;28;20038;-50
2020/12/19 07:29:31;;;;;;;1.65;0.80;;;22.00;39.00;;;;;;5036118;28;20484;-50
2020/12/19 07:31:59;;;;;;;1.25;0.80;;;22.00;39.00;;;;;;5033557;28;20076;-51
2020/12/19 07:34:26;;;;;;;0.52;0.50;;;22.00;39.00;;;;;;5035878;28;20461;-48
2020/12/19 07:36:54;;;;;;;1.10;0.80;;;22.00;39.00;;;;;;5034107;28;20033;-51
2020/12/19 07:39:21;;;;;;;1.15;0.80;;;22.00;39.00;;;;;;5031927;28;20041;-50
2020/12/19 07:42:08;;;;;;;1.13;0.60;;;22.00;39.00;;;;;;5031858;28;20048;-53
2020/12/19 07:44:35;;;;;;;0.88;0.68;;;22.00;39.00;;;;;;5034854;28;20021;-48
2020/12/19 07:47:06;;;;;;;1.27;0.80;;;22.00;39.00;;;;;;5033946;28;20108;-50
2020/12/19 07:49:47;;;;;;;1.73;0.90;;;21.90;39.00;;;;;;5013099;28;20034;-47
2020/12/19 07:52:17;;;;;;;1.13;0.90;;;21.90;39.00;;;;;;5018361;28;20091;-48
2020/12/19 07:54:51;;;;;;;1.67;0.82;;;21.90;39.10;;;;;;5034839;28;20049;-51
2020/12/19 07:57:17;;;;;;;1.60;0.70;;;22.00;39.80;;;;;;5033948;28;20021;-54
2020/12/19 07:59:46;;;;;;;1.88;0.88;;;21.90;39.30;;;;;;5012944;28;20523;-55
2020/12/19 08:02:14;;;;;;;3.17;1.40;;;21.90;39.60;;;;;;5033315;28;20082;-55
2020/12/19 08:04:51;;;;;;;4.35;1.08;;;22.00;40.10;;;;;;5034617;28;20026;-53
2020/12/19 08:07:18;;;;;;;2.25;1.10;;;22.00;40.40;;;;;;5034304;28;20424;-49
2020/12/19 08:09:45;;;;;;;1.67;0.90;;;22.10;40.50;;;;;;5034800;28;20037;-55
2020/12/19 08:12:11;;;;;;;4.38;1.33;;;22.10;40.50;;;;;;5032170;28;20029;-51
2020/12/19 08:14:39;;;;;;;2.70;1.15;;;22.20;40.50;;;;;;5033749;28;20132;-50
2020/12/19 08:17:14;;;;;;;2.95;1.15;;;22.20;40.30;;;;;;5031835;28;20357;-51
2020/12/19 08:19:46;;;;;;;3.28;1.15;;;22.30;40.20;;;;;;5015807;28;20064;-56
2020/12/19 08:22:13;;;;;;;3.10;1.23;;;22.30;40.10;;;;;;5032890;28;20029;-52
2020/12/19 08:24:49;;;;;;;5.03;1.30;;;22.30;40.00;;;;;;5022750;28;20033;-52
2020/12/19 08:27:43;;;;;;;3.97;1.25;;;22.40;40.00;;;;;;5027411;28;20025;-49
2020/12/19 08:30:14;;;;;;;4.60;1.45;;;22.50;40.20;;;;;;5032587;28;20083;-53
2020/12/19 08:32:43;;;;;;;2.60;1.50;;;22.60;40.30;;;;;;5031585;28;20021;-51
2020/12/19 08:35:16;;;;;;;3.60;1.50;;;22.70;40.40;;;;;;5034182;28;20452;-48
2020/12/19 08:37:43;;;;;;;3.30;1.50;;;22.80;40.30;;;;;;5033193;28;20025;-52
2020/12/19 08:40:16;;;;;;;2.83;1.27;;;22.80;40.20;;;;;;5028984;28;20017;-55
2020/12/19 08:42:45;;;;;;;3.60;1.45;;;22.80;40.00;;;;;;5034254;28;20076;-49
2020/12/19 08:45:17;;;;;;;2.63;1.33;;;22.90;39.90;;;;;;5028612;28;20018;-50
2020/12/19 08:47:44;;;;;;;3.75;1.58;;;22.90;39.80;;;;;;5016616;28;20080;-51
2020/12/19 08:50:11;;;;;;;3.72;1.50;;;22.90;39.60;;;;;;5032483;28;20029;-56
2020/12/19 08:52:39;;;;;;;2.42;1.27;;;22.90;39.50;;;;;;5016597;28;20117;-54
2020/12/19 08:55:06;;;;;;;2.90;1.55;;;22.90;39.40;;;;;;5039590;28;20038;-53
2020/12/19 08:57:33;;;;;;;3.47;1.20;;;23.00;39.40;;;;;;5032252;28;20100;-53
2020/12/19 09:00:16;;;;;;;2.67;1.48;;;23.00;39.40;;;;;;5030308;28;20021;-52
2020/12/19 09:02:43;;;;;;;2.35;1.40;;;23.00;39.30;;;;;;5032054;28;20116;-54
2020/12/19 09:05:10;;;;;;;3.33;1.65;;;23.10;39.30;;;;;;5032186;28;20779;-53
2020/12/19 09:07:37;;;;;;;2.63;1.50;;;23.10;39.30;;;;;;4983380;28;20119;-56
2020/12/19 09:10:23;;;;;;;4.35;1.65;;;23.10;39.20;;;;;;4991714;28;20033;-55
2020/12/19 09:13:11;;;;;;;2.65;1.40;;;23.10;39.20;;;;;;4985260;28;20354;-52
2020/12/19 09:15:39;;;;;;;2.60;1.52;;;23.10;39.30;;;;;;5011690;28;20038;-54
2020/12/19 09:18:30;;;;;;;2.83;1.50;;;23.20;39.40;;;;;;5013255;28;20467;-53
2020/12/19 09:20:57;;;;;;;4.53;1.35;;;23.20;39.40;;;;;;5012727;28;20030;-55
2020/12/19 09:23:25;;;;;;;2.15;1.23;;;23.20;39.50;;;;;;5013439;28;20029;-53
2020/12/19 09:25:56;;;;;;;3.90;1.60;;;23.20;39.60;;;;;;5011564;28;20452;-54
2020/12/19 09:28:24;;;;;;;2.95;1.40;;;23.20;39.60;;;;;;4994423;28;20030;-58
2020/12/19 09:30:51;;;;;;;3.00;1.80;;;23.20;39.50;;;;;;4988320;28;20377;-58
2020/12/19 09:33:17;;;;;;;5.07;1.70;;;23.30;39.60;;;;;;5011044;28;20080;-56
2020/12/19 09:35:43;;;;;;;2.65;1.60;;;23.30;39.50;;;;;;4997185;28;20038;-49
2020/12/19 09:38:12;;;;;;;2.72;1.42;;;23.40;39.50;;;;;;5013774;28;20072;-52
2020/12/19 09:40:43;;;;;;;2.45;1.40;;;23.40;39.60;;;;;;5021343;28;20345;-55
2020/12/19 09:43:09;;;;;;;2.75;1.45;;;23.40;39.80;;;;;;5010986;28;20404;-51
2020/12/19 09:45:36;;;;;;;2.70;1.33;;;23.40;39.60;;;;;;5022476;28;20054;-55
2020/12/19 09:48:02;;;;;;;2.70;1.38;;;23.40;39.60;;;;;;5011519;28;20112;-50
2020/12/19 09:50:28;;;;;;;2.58;1.50;;;23.50;39.70;;;;;;5014892;28;20045;-48
2020/12/19 09:52:55;;;;;;;3.53;1.33;;;23.50;39.70;;;;;;4999227;28;20040;-44
2020/12/19 09:55:23;;;;;;;3.30;1.38;;;23.50;39.80;;;;;;5013617;28;20507;-52
2020/12/19 09:57:50;;;;;;;4.65;1.45;;;23.50;39.80;;;;;;5013349;28;20033;-49
2020/12/19 10:00:17;;;;;;;6.22;1.40;;;23.60;39.90;;;;;;5009823;28;20080;-53
2020/12/19 10:02:46;;;;;;;3.45;1.50;;;23.60;40.00;;;;;;5010186;28;20025;-55
2020/12/19 10:05:12;;;;;;;2.15;1.20;;;23.60;40.00;;;;;;5013921;28;20029;-53
2020/12/19 10:07:38;;;;;;;2.13;1.42;;;23.60;40.10;;;;;;5040346;28;20106;-48
2020/12/19 10:10:06;;;;;;;2.05;1.52;;;23.60;40.10;;;;;;5040990;28;20022;-52
2020/12/19 10:12:31;;;;;;;3.50;1.65;;;23.60;40.10;;;;;;5029513;28;20048;-59
2020/12/19 10:14:57;;;;;;;2.50;1.20;;;23.70;40.10;;;;;;5005156;28;20512;-50
2020/12/19 10:17:23;;;;;;;3.17;1.67;;;23.70;40.10;;;;;;5032660;28;20116;-46
2020/12/19 10:19:49;;;;;;;3.95;1.67;;;23.70;40.00;;;;;;5025792;28;20025;-53
2020/12/19 10:22:15;;;;;;;3.72;1.60;;;23.70;39.90;;;;;;5033933;28;20044;-48
2020/12/19 10:24:41;;;;;;;2.92;1.77;;;23.70;39.80;;;;;;5029259;28;20055;-47
2020/12/19 10:27:08;;;;;;;2.47;1.83;;;23.70;39.70;;;;;;5033127;28;20076;-47
2020/12/19 10:29:34;;;;;;;2.80;2.00;;;23.70;39.60;;;;;;5031030;28;20065;-45
2020/12/19 10:32:05;;;;;;;2.92;1.50;;;23.70;40.10;;;;;;5028917;28;20025;-50
2020/12/19 10:34:31;;;;;;;4.35;2.30;;;23.70;39.40;;;;;;5032540;28;20055;-49
2020/12/19 10:36:57;;;;;;;3.40;2.15;;;23.70;39.30;;;;;;5032302;28;21813;-50
2020/12/19 10:39:23;;;;;;;5.43;2.80;;;23.60;39.20;;;;;;5032334;28;20022;-48
2020/12/19 10:41:49;;;;;;;4.00;2.40;;;23.60;39.10;;;;;;5037599;28;20425;-50
2020/12/19 10:44:16;;;;;;;5.03;2.40;;;23.60;39.00;;;;;;5039021;28;20021;-47
2020/12/19 10:46:42;;;;;;;5.18;2.55;;;23.60;38.90;;;;;;5040259;28;20124;-52
2020/12/19 10:49:07;;;;;;;5.28;2.40;;;23.60;38.90;;;;;;5033238;28;20128;-49
2020/12/19 10:51:33;;;;;;;5.57;2.72;;;23.60;38.80;;;;;;5033889;28;20049;-49
2020/12/19 10:53:59;;;;;;;5.22;2.50;;;23.60;38.80;;;;;;5039433;28;20036;-49
2020/12/19 10:56:25;;;;;;;2.95;1.98;;;23.60;38.70;;;;;;5036944;28;20052;-51
2020/12/19 10:58:50;;;;;;;3.33;2.30;;;23.60;38.60;;;;;;5038322;28;20061;-46
2020/12/19 11:01:17;;;;;;;3.25;1.80;;;23.60;38.60;;;;;;5038391;28;20025;-48
2020/12/19 11:03:44;;;;;;;4.38;2.13;;;23.60;38.50;;;;;;5038218;28;20021;-56
2020/12/19 11:06:23;;;;;;;2.20;1.75;;;23.60;38.50;;;;;;5033370;28;20079;-50
2020/12/19 11:08:50;;;;;;;4.78;2.08;;;23.60;38.40;;;;;;5038789;28;20433;-50
2020/12/19 11:11:19;;;;;;;3.85;1.70;;;23.50;38.30;;;;;;5037040;28;20063;-52
2020/12/19 11:13:45;;;;;;;2.45;1.70;;;23.50;38.30;;;;;;5036463;28;20096;-49
2020/12/19 11:16:22;;;;;;;3.60;1.70;;;23.50;38.30;;;;;;5037282;28;20045;-51
2020/12/19 11:18:48;;;;;;;2.25;1.45;;;23.50;38.20;;;;;;5034474;28;20029;-49
2020/12/19 11:21:14;;;;;;;2.80;1.83;;;23.50;38.20;;;;;;5041493;28;20044;-49
2020/12/19 11:23:39;;;;;;;3.00;1.42;;;23.50;37.50;;;;;;5039769;28;20512;-51
2020/12/19 11:26:05;;;;;;;2.33;1.52;;;23.50;37.00;;;;;;5038718;28;20048;-51
2020/12/19 11:28:31;;;;;;;2.92;1.30;;;23.40;37.30;;;;;;5039557;28;20064;-53
2020/12/19 11:30:57;;;;;;;1.70;1.35;;;23.40;37.30;;;;;;5040967;28;20340;-52
2020/12/19 11:33:22;;;;;;;1.42;1.23;;;23.40;37.30;;;;;;5040077;28;20040;-51
2020/12/19 11:35:48;;;;;;;2.30;1.50;;;23.30;37.40;;;;;;5038651;28;20349;-51
2020/12/19 11:38:14;;;;;;;1.83;1.40;;;23.30;37.40;;;;;;5040355;28;20395;-53
2020/12/19 11:40:40;;;;;;;3.53;1.40;;;23.30;37.50;;;;;;5040546;28;20025;-52
2020/12/19 11:43:06;;;;;;;1.95;1.23;;;23.30;37.50;;;;;;5023050;28;20025;-48
2020/12/19 11:45:33;;;;;;;1.75;1.30;;;23.30;37.50;;;;;;5040611;28;20053;-50
2020/12/19 11:47:59;;;;;;;1.52;1.23;;;23.40;37.60;;;;;;5040540;28;20392;-52
2020/12/19 11:50:24;;;;;;;2.75;1.40;;;23.40;37.60;;;;;;5038956;28;20033;-52
2020/12/19 11:52:50;;;;;;;3.47;1.23;;;23.40;37.60;;;;;;5021925;28;20033;-49
2020/12/19 11:55:16;;;;;;;1.77;1.20;;;23.40;37.60;;;;;;5031854;28;20060;-49
2020/12/19 11:57:42;;;;;;;1.60;1.35;;;23.40;37.60;;;;;;5034569;28;20345;-54
2020/12/19 12:00:08;;;;;;;2.60;1.67;;;23.40;37.60;;;;;;5037384;28;20325;-48
2020/12/19 12:02:33;;;;;;;1.90;1.10;;;23.40;37.60;;;;;;5037367;28;20089;-52
2020/12/19 12:04:59;;;;;;;2.67;1.55;;;23.40;37.60;;;;;;5037465;28;20405;-48
2020/12/19 12:07:25;;;;;;;1.88;1.10;;;23.30;37.60;;;;;;5022409;28;20123;-51
2020/12/19 12:09:52;;;;;;;1.17;1.08;;;23.40;37.60;;;;;;5017334;28;20033;-48
2020/12/19 12:12:17;;;;;;;2.20;1.35;;;23.30;38.20;;;;;;5014986;28;20416;-48
2020/12/19 12:14:43;;;;;;;1.80;1.20;;;23.40;37.60;;;;;;4998348;28;20142;-49
2020/12/19 12:17:09;;;;;;;2.72;1.27;;;23.40;37.60;;;;;;4997674;28;20342;-47
2020/12/19 12:19:35;;;;;;;2.10;1.40;;;23.30;37.60;;;;;;4997534;28;20037;-54
2020/12/19 12:22:00;;;;;;;2.67;1.30;;;23.30;37.60;;;;;;4997751;28;20064;-52
2020/12/19 12:24:26;;;;;;;2.45;1.40;;;23.30;37.60;;;;;;4997466;28;20418;-52
2020/12/19 12:26:54;;;;;;;1.50;1.20;;;23.30;37.60;;;;;;4997453;28;20030;-53
2020/12/19 12:29:20;;;;;;;2.42;1.23;;;23.30;37.60;;;;;;4997386;28;20039;-49
2020/12/19 12:31:46;;;;;;;1.65;1.20;;;23.30;37.60;;;;;;5010933;28;20357;-50
2020/12/19 12:34:11;;;;;;;1.08;0.90;;;23.30;37.60;;;;;;5016711;28;20034;-53
2020/12/19 12:36:37;;;;;;;1.42;1.10;;;23.30;37.60;;;;;;5016930;28;20456;-52
2020/12/19 12:39:04;;;;;;;1.92;1.10;;;23.30;37.60;;;;;;5013401;28;20045;-52
2020/12/19 12:41:30;;;;;;;1.65;1.15;;;23.30;37.60;;;;;;4997046;28;20066;-56
2020/12/19 12:43:56;;;;;;;1.40;1.02;;;23.30;37.60;;;;;;4997181;28;20120;-50
2020/12/19 12:46:22;;;;;;;2.17;1.48;;;23.30;37.50;;;;;;4997185;28;20026;-49
2020/12/19 12:48:48;;;;;;;2.13;1.10;;;23.30;37.50;;;;;;4997151;28;20089;-50
2020/12/19 12:51:16;;;;;;;1.30;1.10;;;23.30;37.50;;;;;;4996587;28;20101;-53
2020/12/19 12:53:46;;;;;;;2.13;1.27;;;23.30;37.50;;;;;;4997427;28;20408;-49
2020/12/19 12:56:12;;;;;;;1.65;1.13;;;23.30;37.50;;;;;;5015417;28;20049;-49